Leigh Ann Moran — WDI3096 — position and weather

sailwx.info

Track history (hours):
 
Tides and Currents Weather Stations Pressure Air Temp Water Temp Dewpoint Dewpoint Depression Visibility Wind Speed Wind Dir Waves Ship Positions

Leigh Ann Moran

Owner: Moran Towing Corporation, New Canaan, CT. More information available from US FCC via Universal Licensing System and Coast Guard Vessel Documentation Center.

Last reported at 2018-Apr-22 18:37 UTC. Time now 2018-Apr-24 10:47 UTC.
Position N 27°38' W 082°38'.

Length 176 m; draft 8.2 m.

Type: Tug. MMSI: 338203000.

Date/timePositionNaut miles runAvg speedWind from/ knotsBaromVisibWave heightAir tempDewpointWater temp
2018-Apr-22 18:37N 27°38' W 082°38'410.5
2018-Apr-22 18:13N 27°41' W 082°35'210.4
2018-Apr-22 18:00N 27°42' W 082°33'510.3
2018-Apr-22 17:30N 27°47' W 082°31'5 9.6
2018-Apr-22 17:00N 27°50' W 082°27'4 8.9
2018-Apr-22 16:30N 27°55' W 082°26'1 2.2
2018-Apr-22 15:59N 27°56' W 082°26'0 0.0
2018-Apr-22 15:30N 27°56' W 082°26'0 0.0
2018-Apr-22 15:00N 27°56' W 082°26'0 0.0
2018-Apr-22 14:30N 27°56' W 082°26'0 0.0
2018-Apr-22 14:00N 27°56' W 082°26'0 0.0
2018-Apr-22 13:30N 27°56' W 082°26'0 0.0
2018-Apr-22 13:00N 27°56' W 082°26'0 0.0
2018-Apr-22 12:30N 27°56' W 082°26'0 0.0
2018-Apr-22 12:00N 27°56' W 082°26'0 0.0
2018-Apr-22 11:30N 27°56' W 082°26'0 0.0
2018-Apr-22 11:00N 27°56' W 082°26'0 0.0
2018-Apr-22 10:30N 27°56' W 082°26'0 0.0
2018-Apr-22 10:00N 27°56' W 082°26'0 0.0
2018-Apr-22 09:30N 27°56' W 082°26'0 0.0
2018-Apr-22 09:00N 27°56' W 082°26'0 0.0
2018-Apr-22 08:30N 27°56' W 082°26'0 0.0
2018-Apr-22 08:00N 27°56' W 082°26'0 0.0
2018-Apr-22 07:30N 27°56' W 082°26'0 0.0
2018-Apr-22 07:00N 27°56' W 082°26'0 0.0
2018-Apr-22 06:30N 27°56' W 082°26'0 0.0
2018-Apr-22 06:00N 27°56' W 082°26'0 0.0
2018-Apr-22 05:30N 27°56' W 082°26'0 0.0
2018-Apr-22 05:00N 27°56' W 082°26'0 0.0
2018-Apr-22 04:30N 27°56' W 082°26'0 0.0
2018-Apr-22 04:00N 27°56' W 082°26'0 0.0
2018-Apr-22 03:30N 27°56' W 082°26'0 0.0
2018-Apr-22 03:00N 27°56' W 082°26'0 0.0
2018-Apr-22 02:30N 27°56' W 082°26'0 0.0
2018-Apr-22 02:00N 27°56' W 082°26'0 0.0
2018-Apr-22 01:30N 27°56' W 082°26'0 0.0
2018-Apr-22 01:00N 27°56' W 082°26'0 0.0
2018-Apr-22 00:30N 27°56' W 082°26'0 0.0
2018-Apr-22 00:01N 27°56' W 082°26'2 3.0
2018-Apr-21 23:30N 27°54' W 082°26'2 4.0
2018-Apr-21 22:58N 27°56' W 082°27'0 0.0
2018-Apr-21 22:28N 27°56' W 082°27'0 0.0
2018-Apr-21 21:58N 27°56' W 082°27'0 0.0
2018-Apr-21 21:28N 27°56' W 082°27'0 0.0
2018-Apr-21 20:58N 27°56' W 082°27'0 0.0
2018-Apr-21 20:28N 27°56' W 082°27'0 0.0
2018-Apr-21 19:58N 27°56' W 082°27'0 0.0
2018-Apr-21 19:28N 27°56' W 082°27'0 0.0
2018-Apr-21 18:58N 27°56' W 082°27'0 0.0
2018-Apr-21 18:28N 27°56' W 082°27'0 0.0
2018-Apr-21 17:58N 27°56' W 082°27'0 0.0
2018-Apr-21 17:28N 27°56' W 082°27'0 0.0
2018-Apr-21 16:58N 27°56' W 082°27'0 0.0
2018-Apr-21 16:28N 27°56' W 082°27'0 0.0
2018-Apr-21 15:58N 27°56' W 082°27'0 0.0
2018-Apr-21 15:28N 27°56' W 082°27'0 0.0
2018-Apr-21 14:58N 27°56' W 082°27'0 0.0
2018-Apr-21 14:28N 27°56' W 082°27'0 0.0
2018-Apr-21 13:58N 27°56' W 082°27'0 0.0
2018-Apr-21 13:28N 27°56' W 082°27'0 0.0
2018-Apr-21 12:58N 27°56' W 082°27'0 0.0
2018-Apr-21 12:28N 27°56' W 082°27'0 0.0
2018-Apr-21 11:58N 27°56' W 082°27'0 0.0
2018-Apr-21 11:28N 27°56' W 082°27'0 0.0
2018-Apr-21 10:58N 27°56' W 082°27'0 0.0
2018-Apr-21 10:28N 27°56' W 082°27'0 0.0
2018-Apr-21 09:58N 27°56' W 082°27'0 0.0
2018-Apr-21 09:28N 27°56' W 082°27'0 0.0
2018-Apr-21 08:58N 27°56' W 082°27'0 0.0
2018-Apr-21 08:28N 27°56' W 082°27'0 0.0
2018-Apr-21 07:58N 27°56' W 082°27'0 0.0
2018-Apr-21 07:28N 27°56' W 082°27'0 0.0
2018-Apr-21 06:58N 27°56' W 082°27'0 0.0
2018-Apr-21 06:28N 27°56' W 082°27'0 0.0
2018-Apr-21 05:58N 27°56' W 082°27'0 0.0
2018-Apr-21 05:28N 27°56' W 082°27'0 0.0
2018-Apr-21 04:58N 27°56' W 082°27'0 0.0
2018-Apr-21 04:28N 27°56' W 082°27'0 0.0
2018-Apr-21 03:58N 27°56' W 082°27'0 0.0
2018-Apr-21 03:28N 27°56' W 082°27'0 0.0
2018-Apr-21 02:58N 27°56' W 082°27'0 0.0
2018-Apr-21 02:28N 27°56' W 082°27'0 0.0
2018-Apr-21 01:58N 27°56' W 082°27'0 0.0
2018-Apr-21 01:28N 27°56' W 082°27'0 0.0
2018-Apr-21 01:00N 27°56' W 082°27'0 0.0
2018-Apr-21 00:30N 27°56' W 082°27'0 0.0
2018-Apr-21 00:00N 27°56' W 082°27'0 0.0
2018-Apr-20 23:30N 27°56' W 082°27'0 0.0
2018-Apr-20 23:00N 27°56' W 082°27'0 0.0
2018-Apr-20 22:30N 27°56' W 082°27'0 0.0
2018-Apr-20 22:00N 27°56' W 082°27'0 0.0
2018-Apr-20 21:30N 27°56' W 082°27'0 0.0
2018-Apr-20 21:00N 27°56' W 082°27'0 0.0
2018-Apr-20 20:30N 27°56' W 082°27'0 0.0
2018-Apr-20 20:00N 27°56' W 082°27'0 0.0
2018-Apr-20 19:30N 27°56' W 082°27'0 0.0
2018-Apr-20 19:00N 27°56' W 082°27'0 0.0
2018-Apr-20 18:30N 27°56' W 082°27'0 0.0
2018-Apr-20 18:00N 27°56' W 082°27'0 0.0
2018-Apr-20 17:30N 27°56' W 082°27'0 0.0
2018-Apr-20 17:00N 27°56' W 082°27'0 0.0
2018-Apr-20 16:30N 27°56' W 082°27'0 0.0
2018-Apr-20 15:57N 27°56' W 082°27'0 0.0
2018-Apr-20 15:30N 27°56' W 082°27'0 0.0
2018-Apr-20 15:00N 27°56' W 082°27'0 0.0
2018-Apr-20 14:30N 27°56' W 082°27'0 0.0
2018-Apr-20 14:00N 27°56' W 082°27'0 0.0
2018-Apr-20 13:30N 27°56' W 082°27'0 0.0
2018-Apr-20 13:00N 27°56' W 082°27'0 0.0
2018-Apr-20 12:30N 27°56' W 082°27'0 0.0
2018-Apr-20 12:00N 27°56' W 082°27'0 0.0
2018-Apr-20 11:30N 27°56' W 082°27'0 0.0
2018-Apr-20 11:00N 27°56' W 082°27'0 0.0
2018-Apr-20 10:30N 27°56' W 082°27'0 0.0
2018-Apr-20 10:00N 27°56' W 082°27'0 0.0
2018-Apr-20 09:30N 27°56' W 082°27'0 0.0
2018-Apr-20 09:00N 27°56' W 082°27'0 0.0
2018-Apr-20 08:30N 27°56' W 082°27'0 0.0
2018-Apr-20 08:00N 27°56' W 082°27'0 0.0
2018-Apr-20 07:30N 27°56' W 082°27'0 0.0
2018-Apr-20 07:00N 27°56' W 082°27'0 0.0
2018-Apr-20 06:30N 27°56' W 082°27'0 0.0
2018-Apr-20 06:00N 27°56' W 082°27'0 0.0
2018-Apr-20 05:30N 27°56' W 082°27'0 0.0
2018-Apr-20 05:00N 27°56' W 082°27'0 0.0
2018-Apr-20 04:30N 27°56' W 082°27'0 0.0
2018-Apr-20 04:00N 27°56' W 082°27'0 0.0
2018-Apr-20 03:30N 27°56' W 082°27'0 0.0
2018-Apr-20 03:00N 27°56' W 082°27'0 0.0
2018-Apr-20 02:30N 27°56' W 082°27'0 0.0
2018-Apr-20 02:00N 27°56' W 082°27'0 0.0
2018-Apr-20 01:30N 27°56' W 082°27'0 0.0
2018-Apr-20 01:00N 27°56' W 082°27'0 0.0
2018-Apr-20 00:30N 27°56' W 082°27'0 0.0
2018-Apr-20 00:00N 27°56' W 082°27'0 0.0
2018-Apr-19 23:31N 27°56' W 082°27'2 3.2
2018-Apr-19 23:00N 27°55' W 082°26'1 1.7
2018-Apr-19 22:30N 27°56' W 082°26'0 0.1
2018-Apr-19 22:00N 27°56' W 082°26'2 3.2
2018-Apr-19 21:30N 27°54' W 082°26'1 2.1
2018-Apr-19 21:00N 27°55' W 082°27'0 0.0
2018-Apr-19 20:28N 27°55' W 082°27'0 0.0
2018-Apr-19 19:58N 27°55' W 082°27'0 0.0
2018-Apr-19 19:30N 27°55' W 082°27'0 0.0
2018-Apr-19 19:00N 27°55' W 082°27'0 0.3
2018-Apr-19 18:31N 27°55' W 082°27'0 0.2
2018-Apr-19 18:00N 27°55' W 082°27'0 0.0
2018-Apr-19 17:28N 27°55' W 082°27'0 0.0
2018-Apr-19 16:58N 27°55' W 082°27'0 0.0
2018-Apr-19 16:25N 27°55' W 082°27'0 0.0
2018-Apr-19 15:58N 27°55' W 082°27'0 0.0
2018-Apr-19 15:28N 27°55' W 082°27'0 0.0
2018-Apr-19 14:58N 27°55' W 082°27'0 0.0
2018-Apr-19 14:28N 27°55' W 082°27'0 0.0
2018-Apr-19 13:58N 27°55' W 082°27'0 0.0
2018-Apr-19 13:28N 27°55' W 082°27'0 0.0
2018-Apr-19 12:58N 27°55' W 082°27'0 0.0
2018-Apr-19 12:28N 27°55' W 082°27'0 0.0
2018-Apr-19 11:58N 27°55' W 082°27'0 0.0
2018-Apr-19 11:28N 27°55' W 082°27'0 0.0
2018-Apr-19 10:55N 27°55' W 082°27'0 0.0
2018-Apr-19 10:28N 27°55' W 082°27'0 0.0
2018-Apr-19 09:58N 27°55' W 082°27'0 0.0
2018-Apr-19 09:28N 27°55' W 082°27'0 0.0
2018-Apr-19 08:55N 27°55' W 082°27'0 0.0
2018-Apr-19 08:28N 27°55' W 082°27'0 0.0
2018-Apr-19 07:58N 27°55' W 082°27'0 0.0
2018-Apr-19 07:28N 27°55' W 082°27'0 0.0
2018-Apr-19 06:58N 27°55' W 082°27'0 0.0
2018-Apr-19 06:28N 27°55' W 082°27'0 0.0
2018-Apr-19 05:58N 27°55' W 082°27'0 0.0
2018-Apr-19 05:25N 27°55' W 082°27'0 0.0
2018-Apr-19 04:58N 27°55' W 082°27'0 0.0
2018-Apr-19 04:28N 27°55' W 082°27'0 0.0
2018-Apr-19 03:58N 27°55' W 082°27'0 0.0
2018-Apr-19 03:28N 27°55' W 082°27'0 0.0
2018-Apr-19 02:58N 27°55' W 082°27'0 0.0
2018-Apr-19 02:28N 27°55' W 082°27'0 0.0
2018-Apr-19 01:58N 27°55' W 082°27'0 0.0
2018-Apr-19 01:28N 27°55' W 082°27'0 0.0
2018-Apr-19 00:58N 27°55' W 082°27'0 0.0
2018-Apr-19 00:28N 27°55' W 082°27'0 0.0
2018-Apr-18 23:58N 27°55' W 082°27'0 0.0
2018-Apr-18 23:30N 27°55' W 082°27'0 0.0
2018-Apr-18 23:00N 27°55' W 082°27'1 2.8
2018-Apr-18 22:30N 27°54' W 082°26'5 9.4
2018-Apr-18 22:00N 27°49' W 082°27'5 9.9
2018-Apr-18 21:30N 27°47' W 082°32'5 5.6
2018-Apr-18 20:40N 27°52' W 082°33'0 0.6
2018-Apr-18 20:25N 27°52' W 082°33'0 0.0
2018-Apr-18 19:55N 27°52' W 082°33'0 0.0
2018-Apr-18 19:25N 27°52' W 082°33'0 0.0
2018-Apr-18 18:55N 27°52' W 082°33'0 0.0
2018-Apr-18 18:25N 27°52' W 082°33'0 0.0
2018-Apr-18 17:43N 27°52' W 082°33'0 0.0
2018-Apr-18 17:25N 27°52' W 082°33'0 0.0
2018-Apr-18 16:07N 27°52' W 082°33'0 0.0
2018-Apr-18 15:55N 27°52' W 082°33'0 0.0
2018-Apr-18 15:07N 27°52' W 082°33'0 0.0
2018-Apr-18 14:55N 27°52' W 082°33'0 0.0
2018-Apr-18 14:25N 27°52' W 082°33'0 0.0
2018-Apr-18 13:55N 27°52' W 082°33'0 0.0
2018-Apr-18 13:28N 27°52' W 082°33'0 0.0
2018-Apr-18 12:07N 27°52' W 082°33'0 0.0
2018-Apr-18 11:49N 27°52' W 082°33'0 0.0
2018-Apr-18 11:25N 27°52' W 082°33'0 0.0
2018-Apr-18 11:01N 27°52' W 082°33'0 0.0
2018-Apr-18 10:25N 27°52' W 082°33'0 0.0
2018-Apr-18 09:55N 27°52' W 082°33'0 0.0
2018-Apr-18 09:25N 27°52' W 082°33'0 0.0
2018-Apr-18 08:48N 27°52' W 082°33'0 0.0
2018-Apr-18 08:28N 27°52' W 082°33'0 0.0
2018-Apr-18 07:55N 27°52' W 082°33'0 0.0
2018-Apr-18 07:12N 27°52' W 082°33'0 0.0
2018-Apr-18 07:00N 27°52' W 082°33'0 0.0
2018-Apr-18 06:30N 27°52' W 082°33'0 0.0
2018-Apr-18 05:55N 27°52' W 082°33'0 0.0
2018-Apr-18 05:31N 27°52' W 082°33'0 0.0
2018-Apr-18 05:00N 27°52' W 082°33'0 0.2
2018-Apr-18 04:30N 27°52' W 082°33'2 4.7
2018-Apr-18 04:00N 27°49' W 082°34'3 5.6
2018-Apr-18 03:30N 27°47' W 082°32'3 6.6
2018-Apr-18 03:00N 27°44' W 082°32'5 9.9
2018-Apr-18 02:30N 27°40' W 082°36'  
Track history (hours):
 
Tides and Currents Weather Stations Pressure Air Temp Water Temp Dewpoint Dewpoint Depression Visibility Wind Speed Wind Dir Waves Ship Positions

Leigh Ann Moran

Owner: Moran Towing Corporation, New Canaan, CT. More information available from US FCC via Universal Licensing System and Coast Guard Vessel Documentation Center.

Last reported at 2018-Apr-22 18:37 UTC. Time now 2018-Apr-24 10:47 UTC.
Position N 27°38' W 082°38'.

Length 176 m; draft 8.2 m.

Type: Tug. MMSI: 338203000.

Date/timePositionNaut miles runAvg speedWind from/ knotsBaromVisibWave heightAir tempDewpointWater temp
2018-Apr-22 18:37N 27°38' W 082°38'410.5
2018-Apr-22 18:13N 27°41' W 082°35'210.4
2018-Apr-22 18:00N 27°42' W 082°33'510.3
2018-Apr-22 17:30N 27°47' W 082°31'5 9.6
2018-Apr-22 17:00N 27°50' W 082°27'4 8.9
2018-Apr-22 16:30N 27°55' W 082°26'1 2.2
2018-Apr-22 15:59N 27°56' W 082°26'0 0.0
2018-Apr-22 15:30N 27°56' W 082°26'0 0.0
2018-Apr-22 15:00N 27°56' W 082°26'0 0.0
2018-Apr-22 14:30N 27°56' W 082°26'0 0.0
2018-Apr-22 14:00N 27°56' W 082°26'0 0.0
2018-Apr-22 13:30N 27°56' W 082°26'0 0.0
2018-Apr-22 13:00N 27°56' W 082°26'0 0.0
2018-Apr-22 12:30N 27°56' W 082°26'0 0.0
2018-Apr-22 12:00N 27°56' W 082°26'0 0.0
2018-Apr-22 11:30N 27°56' W 082°26'0 0.0
2018-Apr-22 11:00N 27°56' W 082°26'0 0.0
2018-Apr-22 10:30N 27°56' W 082°26'0 0.0
2018-Apr-22 10:00N 27°56' W 082°26'0 0.0
2018-Apr-22 09:30N 27°56' W 082°26'0 0.0
2018-Apr-22 09:00N 27°56' W 082°26'0 0.0
2018-Apr-22 08:30N 27°56' W 082°26'0 0.0
2018-Apr-22 08:00N 27°56' W 082°26'0 0.0
2018-Apr-22 07:30N 27°56' W 082°26'0 0.0
2018-Apr-22 07:00N 27°56' W 082°26'0 0.0
2018-Apr-22 06:30N 27°56' W 082°26'0 0.0
2018-Apr-22 06:00N 27°56' W 082°26'0 0.0
2018-Apr-22 05:30N 27°56' W 082°26'0 0.0
2018-Apr-22 05:00N 27°56' W 082°26'0 0.0
2018-Apr-22 04:30N 27°56' W 082°26'0 0.0
2018-Apr-22 04:00N 27°56' W 082°26'0 0.0
2018-Apr-22 03:30N 27°56' W 082°26'0 0.0
2018-Apr-22 03:00N 27°56' W 082°26'0 0.0
2018-Apr-22 02:30N 27°56' W 082°26'0 0.0
2018-Apr-22 02:00N 27°56' W 082°26'0 0.0
2018-Apr-22 01:30N 27°56' W 082°26'0 0.0
2018-Apr-22 01:00N 27°56' W 082°26'0 0.0
2018-Apr-22 00:30N 27°56' W 082°26'0 0.0
2018-Apr-22 00:01N 27°56' W 082°26'2 3.0
2018-Apr-21 23:30N 27°54' W 082°26'2 4.0
2018-Apr-21 22:58N 27°56' W 082°27'0 0.0
2018-Apr-21 22:28N 27°56' W 082°27'0 0.0
2018-Apr-21 21:58N 27°56' W 082°27'0 0.0
2018-Apr-21 21:28N 27°56' W 082°27'0 0.0
2018-Apr-21 20:58N 27°56' W 082°27'0 0.0
2018-Apr-21 20:28N 27°56' W 082°27'0 0.0
2018-Apr-21 19:58N 27°56' W 082°27'0 0.0
2018-Apr-21 19:28N 27°56' W 082°27'0 0.0
2018-Apr-21 18:58N 27°56' W 082°27'0 0.0
2018-Apr-21 18:28N 27°56' W 082°27'0 0.0
2018-Apr-21 17:58N 27°56' W 082°27'0 0.0
2018-Apr-21 17:28N 27°56' W 082°27'0 0.0
2018-Apr-21 16:58N 27°56' W 082°27'0 0.0
2018-Apr-21 16:28N 27°56' W 082°27'0 0.0
2018-Apr-21 15:58N 27°56' W 082°27'0 0.0
2018-Apr-21 15:28N 27°56' W 082°27'0 0.0
2018-Apr-21 14:58N 27°56' W 082°27'0 0.0
2018-Apr-21 14:28N 27°56' W 082°27'0 0.0
2018-Apr-21 13:58N 27°56' W 082°27'0 0.0
2018-Apr-21 13:28N 27°56' W 082°27'0 0.0
2018-Apr-21 12:58N 27°56' W 082°27'0 0.0
2018-Apr-21 12:28N 27°56' W 082°27'0 0.0
2018-Apr-21 11:58N 27°56' W 082°27'0 0.0
2018-Apr-21 11:28N 27°56' W 082°27'0 0.0
2018-Apr-21 10:58N 27°56' W 082°27'0 0.0
2018-Apr-21 10:28N 27°56' W 082°27'0 0.0
2018-Apr-21 09:58N 27°56' W 082°27'0 0.0
2018-Apr-21 09:28N 27°56' W 082°27'0 0.0
2018-Apr-21 08:58N 27°56' W 082°27'0 0.0
2018-Apr-21 08:28N 27°56' W 082°27'0 0.0
2018-Apr-21 07:58N 27°56' W 082°27'0 0.0
2018-Apr-21 07:28N 27°56' W 082°27'0 0.0
2018-Apr-21 06:58N 27°56' W 082°27'0 0.0
2018-Apr-21 06:28N 27°56' W 082°27'0 0.0
2018-Apr-21 05:58N 27°56' W 082°27'0 0.0
2018-Apr-21 05:28N 27°56' W 082°27'0 0.0
2018-Apr-21 04:58N 27°56' W 082°27'0 0.0
2018-Apr-21 04:28N 27°56' W 082°27'0 0.0
2018-Apr-21 03:58N 27°56' W 082°27'0 0.0
2018-Apr-21 03:28N 27°56' W 082°27'0 0.0
2018-Apr-21 02:58N 27°56' W 082°27'0 0.0
2018-Apr-21 02:28N 27°56' W 082°27'0 0.0
2018-Apr-21 01:58N 27°56' W 082°27'0 0.0
2018-Apr-21 01:28N 27°56' W 082°27'0 0.0
2018-Apr-21 01:00N 27°56' W 082°27'0 0.0
2018-Apr-21 00:30N 27°56' W 082°27'0 0.0
2018-Apr-21 00:00N 27°56' W 082°27'0 0.0
2018-Apr-20 23:30N 27°56' W 082°27'0 0.0
2018-Apr-20 23:00N 27°56' W 082°27'0 0.0
2018-Apr-20 22:30N 27°56' W 082°27'0 0.0
2018-Apr-20 22:00N 27°56' W 082°27'0 0.0
2018-Apr-20 21:30N 27°56' W 082°27'0 0.0
2018-Apr-20 21:00N 27°56' W 082°27'0 0.0
2018-Apr-20 20:30N 27°56' W 082°27'0 0.0
2018-Apr-20 20:00N 27°56' W 082°27'0 0.0
2018-Apr-20 19:30N 27°56' W 082°27'0 0.0
2018-Apr-20 19:00N 27°56' W 082°27'0 0.0
2018-Apr-20 18:30N 27°56' W 082°27'0 0.0
2018-Apr-20 18:00N 27°56' W 082°27'0 0.0
2018-Apr-20 17:30N 27°56' W 082°27'0 0.0
2018-Apr-20 17:00N 27°56' W 082°27'0 0.0
2018-Apr-20 16:30N 27°56' W 082°27'0 0.0
2018-Apr-20 15:57N 27°56' W 082°27'0 0.0
2018-Apr-20 15:30N 27°56' W 082°27'0 0.0
2018-Apr-20 15:00N 27°56' W 082°27'0 0.0
2018-Apr-20 14:30N 27°56' W 082°27'0 0.0
2018-Apr-20 14:00N 27°56' W 082°27'0 0.0
2018-Apr-20 13:30N 27°56' W 082°27'0 0.0
2018-Apr-20 13:00N 27°56' W 082°27'0 0.0
2018-Apr-20 12:30N 27°56' W 082°27'0 0.0
2018-Apr-20 12:00N 27°56' W 082°27'0 0.0
2018-Apr-20 11:30N 27°56' W 082°27'0 0.0
2018-Apr-20 11:00N 27°56' W 082°27'0 0.0
2018-Apr-20 10:30N 27°56' W 082°27'0 0.0
2018-Apr-20 10:00N 27°56' W 082°27'0 0.0
2018-Apr-20 09:30N 27°56' W 082°27'0 0.0
2018-Apr-20 09:00N 27°56' W 082°27'0 0.0
2018-Apr-20 08:30N 27°56' W 082°27'0 0.0
2018-Apr-20 08:00N 27°56' W 082°27'0 0.0
2018-Apr-20 07:30N 27°56' W 082°27'0 0.0
2018-Apr-20 07:00N 27°56' W 082°27'0 0.0
2018-Apr-20 06:30N 27°56' W 082°27'0 0.0
2018-Apr-20 06:00N 27°56' W 082°27'0 0.0
2018-Apr-20 05:30N 27°56' W 082°27'0 0.0
2018-Apr-20 05:00N 27°56' W 082°27'0 0.0
2018-Apr-20 04:30N 27°56' W 082°27'0 0.0
2018-Apr-20 04:00N 27°56' W 082°27'0 0.0
2018-Apr-20 03:30N 27°56' W 082°27'0 0.0
2018-Apr-20 03:00N 27°56' W 082°27'0 0.0
2018-Apr-20 02:30N 27°56' W 082°27'0 0.0
2018-Apr-20 02:00N 27°56' W 082°27'0 0.0
2018-Apr-20 01:30N 27°56' W 082°27'0 0.0
2018-Apr-20 01:00N 27°56' W 082°27'0 0.0
2018-Apr-20 00:30N 27°56' W 082°27'0 0.0
2018-Apr-20 00:00N 27°56' W 082°27'0 0.0
2018-Apr-19 23:31N 27°56' W 082°27'2 3.2
2018-Apr-19 23:00N 27°55' W 082°26'1 1.7
2018-Apr-19 22:30N 27°56' W 082°26'0 0.1
2018-Apr-19 22:00N 27°56' W 082°26'2 3.2
2018-Apr-19 21:30N 27°54' W 082°26'1 2.1
2018-Apr-19 21:00N 27°55' W 082°27'0 0.0
2018-Apr-19 20:28N 27°55' W 082°27'0 0.0
2018-Apr-19 19:58N 27°55' W 082°27'0 0.0
2018-Apr-19 19:30N 27°55' W 082°27'0 0.0
2018-Apr-19 19:00N 27°55' W 082°27'0 0.3
2018-Apr-19 18:31N 27°55' W 082°27'0 0.2
2018-Apr-19 18:00N 27°55' W 082°27'0 0.0
2018-Apr-19 17:28N 27°55' W 082°27'0 0.0
2018-Apr-19 16:58N 27°55' W 082°27'0 0.0
2018-Apr-19 16:25N 27°55' W 082°27'0 0.0
2018-Apr-19 15:58N 27°55' W 082°27'0 0.0
2018-Apr-19 15:28N 27°55' W 082°27'0 0.0
2018-Apr-19 14:58N 27°55' W 082°27'0 0.0
2018-Apr-19 14:28N 27°55' W 082°27'0 0.0
2018-Apr-19 13:58N 27°55' W 082°27'0 0.0
2018-Apr-19 13:28N 27°55' W 082°27'0 0.0
2018-Apr-19 12:58N 27°55' W 082°27'0 0.0
2018-Apr-19 12:28N 27°55' W 082°27'0 0.0
2018-Apr-19 11:58N 27°55' W 082°27'0 0.0
2018-Apr-19 11:28N 27°55' W 082°27'0 0.0
2018-Apr-19 10:55N 27°55' W 082°27'0 0.0
2018-Apr-19 10:28N 27°55' W 082°27'0 0.0
2018-Apr-19 09:58N 27°55' W 082°27'0 0.0
2018-Apr-19 09:28N 27°55' W 082°27'0 0.0
2018-Apr-19 08:55N 27°55' W 082°27'0 0.0
2018-Apr-19 08:28N 27°55' W 082°27'0 0.0
2018-Apr-19 07:58N 27°55' W 082°27'0 0.0
2018-Apr-19 07:28N 27°55' W 082°27'0 0.0
2018-Apr-19 06:58N 27°55' W 082°27'0 0.0
2018-Apr-19 06:28N 27°55' W 082°27'0 0.0
2018-Apr-19 05:58N 27°55' W 082°27'0 0.0
2018-Apr-19 05:25N 27°55' W 082°27'0 0.0
2018-Apr-19 04:58N 27°55' W 082°27'0 0.0
2018-Apr-19 04:28N 27°55' W 082°27'0 0.0
2018-Apr-19 03:58N 27°55' W 082°27'0 0.0
2018-Apr-19 03:28N 27°55' W 082°27'0 0.0
2018-Apr-19 02:58N 27°55' W 082°27'0 0.0
2018-Apr-19 02:28N 27°55' W 082°27'0 0.0
2018-Apr-19 01:58N 27°55' W 082°27'0 0.0
2018-Apr-19 01:28N 27°55' W 082°27'0 0.0
2018-Apr-19 00:58N 27°55' W 082°27'0 0.0
2018-Apr-19 00:28N 27°55' W 082°27'0 0.0
2018-Apr-18 23:58N 27°55' W 082°27'0 0.0
2018-Apr-18 23:30N 27°55' W 082°27'0 0.0
2018-Apr-18 23:00N 27°55' W 082°27'1 2.8
2018-Apr-18 22:30N 27°54' W 082°26'5 9.4
2018-Apr-18 22:00N 27°49' W 082°27'5 9.9
2018-Apr-18 21:30N 27°47' W 082°32'5 5.6
2018-Apr-18 20:40N 27°52' W 082°33'0 0.6
2018-Apr-18 20:25N 27°52' W 082°33'0 0.0
2018-Apr-18 19:55N 27°52' W 082°33'0 0.0
2018-Apr-18 19:25N 27°52' W 082°33'0 0.0
2018-Apr-18 18:55N 27°52' W 082°33'0 0.0
2018-Apr-18 18:25N 27°52' W 082°33'0 0.0
2018-Apr-18 17:43N 27°52' W 082°33'0 0.0
2018-Apr-18 17:25N 27°52' W 082°33'0 0.0
2018-Apr-18 16:07N 27°52' W 082°33'0 0.0
2018-Apr-18 15:55N 27°52' W 082°33'0 0.0
2018-Apr-18 15:07N 27°52' W 082°33'0 0.0
2018-Apr-18 14:55N 27°52' W 082°33'0 0.0
2018-Apr-18 14:25N 27°52' W 082°33'0 0.0
2018-Apr-18 13:55N 27°52' W 082°33'0 0.0
2018-Apr-18 13:28N 27°52' W 082°33'0 0.0
2018-Apr-18 12:07N 27°52' W 082°33'0 0.0
2018-Apr-18 11:49N 27°52' W 082°33'0 0.0
2018-Apr-18 11:25N 27°52' W 082°33'0 0.0
2018-Apr-18 11:01N 27°52' W 082°33'0 0.0
2018-Apr-18 10:25N 27°52' W 082°33'0 0.0
2018-Apr-18 09:55N 27°52' W 082°33'0 0.0
2018-Apr-18 09:25N 27°52' W 082°33'0 0.0
2018-Apr-18 08:48N 27°52' W 082°33'0 0.0
2018-Apr-18 08:28N 27°52' W 082°33'0 0.0
2018-Apr-18 07:55N 27°52' W 082°33'0 0.0
2018-Apr-18 07:12N 27°52' W 082°33'0 0.0
2018-Apr-18 07:00N 27°52' W 082°33'0 0.0
2018-Apr-18 06:30N 27°52' W 082°33'0 0.0
2018-Apr-18 05:55N 27°52' W 082°33'0 0.0
2018-Apr-18 05:31N 27°52' W 082°33'0 0.0
2018-Apr-18 05:00N 27°52' W 082°33'0 0.2
2018-Apr-18 04:30N 27°52' W 082°33'2 4.7
2018-Apr-18 04:00N 27°49' W 082°34'3 5.6
2018-Apr-18 03:30N 27°47' W 082°32'3 6.6
2018-Apr-18 03:00N 27°44' W 082°32'5 9.9
2018-Apr-18 02:30N 27°40' W 082°36'  

Dump ship's entire track history